createdAt,value
2023-07-16T00:00:13.068Z,19.15
2023-07-16T00:01:13.056Z,19.12
2023-07-16T00:02:13.191Z,19.08
2023-07-16T00:03:13.095Z,19.09
2023-07-16T00:04:13.065Z,19.07
2023-07-16T00:05:13.008Z,19.09
2023-07-16T00:06:13.101Z,19.12
2023-07-16T00:07:12.984Z,19.09
2023-07-16T00:08:13.005Z,19.11
2023-07-16T00:09:12.958Z,19.02
2023-07-16T00:10:12.973Z,18.99
2023-07-16T00:11:12.944Z,19.04
2023-07-16T00:12:12.942Z,19.00
2023-07-16T00:13:12.930Z,18.95
2023-07-16T00:14:12.896Z,18.96
2023-07-16T00:15:12.890Z,18.92
2023-07-16T00:16:13.006Z,18.90
2023-07-16T00:17:12.868Z,18.92
2023-07-16T00:18:12.945Z,18.92
2023-07-16T00:19:12.856Z,18.89
2023-07-16T00:20:12.825Z,18.83
2023-07-16T00:21:12.813Z,18.74
2023-07-16T00:22:12.814Z,18.81
2023-07-16T00:23:12.908Z,18.70
2023-07-16T00:24:12.800Z,18.63
2023-07-16T00:25:12.798Z,18.59
2023-07-16T00:26:12.776Z,18.63
2023-07-16T00:27:12.755Z,18.66
2023-07-16T00:28:12.741Z,18.68
2023-07-16T00:29:12.712Z,18.62
2023-07-16T00:30:12.723Z,18.63
2023-07-16T00:31:12.778Z,18.62
2023-07-16T00:32:12.685Z,18.66
2023-07-16T00:33:12.670Z,18.62
2023-07-16T00:34:12.658Z,18.53
2023-07-16T00:35:12.647Z,18.55
2023-07-16T00:36:12.695Z,18.52
2023-07-16T00:37:12.647Z,18.45
2023-07-16T00:38:12.608Z,18.41
2023-07-16T00:39:12.600Z,18.43
2023-07-16T00:40:12.620Z,18.43
2023-07-16T00:41:12.568Z,18.38
2023-07-16T00:42:12.565Z,18.38
2023-07-16T00:43:12.546Z,18.40
2023-07-16T00:44:12.549Z,18.43
2023-07-16T00:45:12.525Z,18.38
2023-07-16T00:46:12.568Z,18.34
2023-07-16T00:47:12.494Z,18.37
2023-07-16T00:48:12.495Z,18.38
2023-07-16T00:49:12.479Z,18.33
2023-07-16T00:50:12.459Z,18.33
2023-07-16T00:51:12.442Z,18.31
2023-07-16T00:52:12.435Z,18.29
2023-07-16T00:53:12.425Z,18.28
2023-07-16T00:54:12.433Z,18.29
2023-07-16T00:55:12.415Z,18.28
2023-07-16T00:56:12.422Z,18.31
2023-07-16T00:57:12.386Z,18.28
2023-07-16T00:58:12.354Z,18.20
2023-07-16T00:59:12.353Z,18.11
2023-07-16T01:00:12.361Z,18.15
2023-07-16T01:01:12.358Z,18.11
2023-07-16T01:02:12.323Z,18.04
2023-07-16T01:03:12.356Z,18.08
2023-07-16T01:04:12.345Z,18.16
2023-07-16T01:05:12.388Z,18.07
2023-07-16T01:06:12.291Z,18.00
2023-07-16T01:07:12.302Z,18.01
2023-07-16T01:08:12.239Z,18.03
2023-07-16T01:09:12.228Z,17.94
2023-07-16T01:10:12.208Z,17.92
2023-07-16T01:11:12.211Z,17.97
2023-07-16T01:12:12.224Z,17.97
2023-07-16T01:13:12.175Z,17.98
2023-07-16T01:14:12.171Z,17.90
2023-07-16T01:15:12.150Z,17.90
2023-07-16T01:16:12.197Z,17.87
2023-07-16T01:17:12.132Z,17.95
2023-07-16T01:18:12.173Z,17.95
2023-07-16T01:19:12.110Z,17.89
2023-07-16T01:20:12.106Z,17.85
2023-07-16T01:21:12.079Z,17.86
2023-07-16T01:22:13.087Z,17.82
2023-07-16T01:23:12.064Z,17.85
2023-07-16T01:24:12.049Z,17.92
2023-07-16T01:25:12.034Z,17.92
2023-07-16T01:26:12.015Z,17.94
2023-07-16T01:27:12.006Z,17.87
2023-07-16T01:28:12.022Z,17.94
2023-07-16T01:29:11.990Z,17.95
2023-07-16T01:30:11.969Z,17.90
2023-07-16T01:31:12.015Z,17.92
2023-07-16T01:32:11.952Z,17.90
2023-07-16T01:33:11.969Z,17.94
2023-07-16T01:34:11.964Z,17.92
2023-07-16T01:35:11.921Z,17.97
2023-07-16T01:36:11.899Z,17.94
2023-07-16T01:37:11.876Z,17.89
2023-07-16T01:38:11.863Z,17.87
2023-07-16T01:39:11.855Z,17.79
2023-07-16T01:40:11.866Z,17.65
2023-07-16T01:41:11.830Z,17.59
2023-07-16T01:42:11.837Z,17.54
2023-07-16T01:43:11.813Z,17.56
2023-07-16T01:44:11.826Z,17.57
2023-07-16T01:45:11.802Z,17.52
2023-07-16T01:46:11.836Z,17.44
2023-07-16T01:47:11.765Z,17.44
2023-07-16T01:48:11.764Z,17.45
2023-07-16T01:49:11.740Z,17.48
2023-07-16T01:50:11.721Z,17.56
2023-07-16T01:51:11.711Z,17.54
2023-07-16T01:52:11.694Z,17.54
2023-07-16T01:53:11.683Z,17.52
2023-07-16T01:54:11.668Z,17.52
2023-07-16T01:55:11.662Z,17.54
2023-07-16T01:56:11.648Z,17.52
2023-07-16T01:57:11.645Z,17.57
2023-07-16T01:58:11.625Z,17.60
2023-07-16T01:59:11.611Z,17.60
2023-07-16T02:00:11.633Z,17.67
2023-07-16T02:01:11.636Z,17.70
2023-07-16T02:02:11.591Z,17.68
2023-07-16T02:03:11.615Z,17.68
2023-07-16T02:04:11.553Z,17.63
2023-07-16T02:05:11.542Z,17.56
2023-07-16T02:06:11.522Z,17.54
2023-07-16T02:07:11.507Z,17.49
2023-07-16T02:08:11.502Z,17.52
2023-07-16T02:09:11.489Z,17.45
2023-07-16T02:10:11.495Z,17.45
2023-07-16T02:11:11.458Z,17.45
2023-07-16T02:12:11.460Z,17.41
2023-07-16T02:13:11.456Z,17.42
2023-07-16T02:14:11.429Z,17.45
2023-07-16T02:15:11.423Z,17.49
2023-07-16T02:16:11.522Z,17.46
2023-07-16T02:17:11.393Z,17.41
2023-07-16T02:18:11.388Z,17.45
2023-07-16T02:19:11.373Z,17.51
2023-07-16T02:20:11.353Z,17.48
2023-07-16T02:21:11.344Z,17.44
2023-07-16T02:22:11.326Z,17.51
2023-07-16T02:23:11.357Z,17.44
2023-07-16T02:24:11.308Z,17.49
2023-07-16T02:25:11.283Z,17.54
2023-07-16T02:26:11.279Z,17.49
2023-07-16T02:27:11.257Z,17.54
2023-07-16T02:28:11.243Z,17.48
2023-07-16T02:29:11.239Z,17.45
2023-07-16T02:30:11.241Z,17.42
2023-07-16T02:31:11.270Z,17.41
2023-07-16T02:32:11.237Z,17.39
2023-07-16T02:33:11.188Z,17.33
2023-07-16T02:34:11.174Z,17.30
2023-07-16T02:35:11.150Z,17.27
2023-07-16T02:36:11.145Z,17.26
2023-07-16T02:37:11.137Z,17.27
2023-07-16T02:38:11.127Z,17.27
2023-07-16T02:39:11.112Z,17.23
2023-07-16T02:40:11.106Z,17.22
2023-07-16T02:41:11.095Z,17.22
2023-07-16T02:42:11.070Z,17.22
2023-07-16T02:43:11.059Z,17.23
2023-07-16T02:44:11.056Z,17.23
2023-07-16T02:45:11.030Z,17.22
2023-07-16T02:46:11.028Z,17.20
2023-07-16T02:47:11.067Z,17.15
2023-07-16T02:48:11.101Z,17.14
2023-07-16T02:49:10.978Z,17.05
2023-07-16T02:50:10.974Z,17.06
2023-07-16T02:51:10.970Z,17.02
2023-07-16T02:52:10.943Z,17.06
2023-07-16T02:53:10.942Z,17.06
2023-07-16T02:54:10.946Z,17.05
2023-07-16T02:55:10.909Z,17.06
2023-07-16T02:56:10.888Z,17.06
2023-07-16T02:57:10.883Z,17.04
2023-07-16T02:58:10.880Z,16.96
2023-07-16T02:59:10.862Z,16.89
2023-07-16T03:00:10.845Z,16.83
2023-07-16T03:01:10.847Z,16.79
2023-07-16T03:02:10.882Z,16.79
2023-07-16T03:03:11.030Z,16.72
2023-07-16T03:04:10.818Z,16.71
2023-07-16T03:05:10.780Z,16.66
2023-07-16T03:06:10.768Z,16.65
2023-07-16T03:07:10.755Z,16.58
2023-07-16T03:08:10.740Z,16.56
2023-07-16T03:09:10.733Z,16.56
2023-07-16T03:10:10.710Z,16.50
2023-07-16T03:11:10.696Z,16.50
2023-07-16T03:12:10.703Z,16.51
2023-07-16T03:13:10.685Z,16.49
2023-07-16T03:14:10.665Z,16.53
2023-07-16T03:15:10.643Z,16.50
2023-07-16T03:16:10.638Z,16.49
2023-07-16T03:17:10.769Z,16.43
2023-07-16T03:18:10.605Z,16.43
2023-07-16T03:19:10.592Z,16.36
2023-07-16T03:20:10.603Z,16.36
2023-07-16T03:21:10.572Z,16.38
2023-07-16T03:22:10.559Z,16.33
2023-07-16T03:23:10.675Z,16.29
2023-07-16T03:24:10.540Z,16.28
2023-07-16T03:25:10.508Z,16.31
2023-07-16T03:26:10.500Z,16.32
2023-07-16T03:27:18.185Z,16.28
2023-07-16T03:28:11.521Z,16.29
2023-07-16T03:29:10.478Z,16.28
2023-07-16T03:30:10.446Z,16.28
2023-07-16T03:31:10.460Z,16.26
2023-07-16T03:32:10.428Z,16.24
2023-07-16T03:33:10.454Z,16.24
2023-07-16T03:34:10.400Z,16.20
2023-07-16T03:35:10.375Z,16.16
2023-07-16T03:36:10.402Z,16.20
2023-07-16T03:37:10.368Z,16.20
2023-07-16T03:38:10.348Z,16.17
2023-07-16T03:39:10.330Z,16.24
2023-07-16T03:40:10.339Z,16.26
2023-07-16T03:41:10.302Z,16.26
2023-07-16T03:42:10.297Z,16.20
2023-07-16T03:43:10.288Z,16.15
2023-07-16T03:44:10.262Z,16.15
2023-07-16T03:45:10.261Z,16.16
2023-07-16T03:46:10.272Z,16.20
2023-07-16T03:47:10.298Z,16.13
2023-07-16T03:48:10.287Z,16.04
2023-07-16T03:49:10.433Z,16.05
2023-07-16T03:50:10.205Z,16.01
2023-07-16T03:51:10.178Z,16.00
2023-07-16T03:52:10.181Z,15.98
2023-07-16T03:53:10.146Z,16.01
2023-07-16T03:54:10.136Z,16.02
2023-07-16T03:55:10.120Z,16.05
2023-07-16T03:56:10.112Z,16.01
2023-07-16T03:57:10.101Z,16.04
2023-07-16T03:58:10.102Z,16.02
2023-07-16T03:59:10.069Z,16.01
2023-07-16T04:00:10.049Z,16.02
2023-07-16T04:01:10.052Z,16.00
2023-07-16T04:02:10.144Z,15.98
2023-07-16T04:03:10.109Z,15.94
2023-07-16T04:04:10.059Z,15.90
2023-07-16T04:05:09.989Z,15.88
2023-07-16T04:06:09.974Z,15.83
2023-07-16T04:07:09.974Z,15.84
2023-07-16T04:08:09.985Z,15.91
2023-07-16T04:09:09.947Z,15.94
2023-07-16T04:10:09.935Z,15.95
2023-07-16T04:11:09.918Z,15.92
2023-07-16T04:12:09.897Z,15.90
2023-07-16T04:13:09.887Z,15.86
2023-07-16T04:14:09.907Z,15.86
2023-07-16T04:15:09.870Z,15.91
2023-07-16T04:16:09.899Z,15.91
2023-07-16T04:17:09.838Z,15.95
2023-07-16T04:18:09.841Z,15.95
2023-07-16T04:19:09.822Z,16.00
2023-07-16T04:20:09.831Z,15.94
2023-07-16T04:21:09.789Z,15.97
2023-07-16T04:22:09.768Z,15.95
2023-07-16T04:23:09.795Z,15.94
2023-07-16T04:24:09.777Z,15.95
2023-07-16T04:25:09.735Z,16.00
2023-07-16T04:26:09.728Z,15.92
2023-07-16T04:27:09.711Z,15.94
2023-07-16T04:28:09.701Z,15.94
2023-07-16T04:29:09.685Z,15.86
2023-07-16T04:30:09.667Z,15.84
2023-07-16T04:31:09.720Z,15.84
2023-07-16T04:32:09.650Z,15.86
2023-07-16T04:33:09.665Z,15.90
2023-07-16T04:34:09.630Z,15.88
2023-07-16T04:35:09.631Z,15.88
2023-07-16T04:36:09.596Z,15.88
2023-07-16T04:37:09.579Z,15.84
2023-07-16T04:38:09.578Z,15.86
2023-07-16T04:39:09.555Z,15.84
2023-07-16T04:40:09.573Z,15.77
2023-07-16T04:41:09.541Z,15.72
2023-07-16T04:42:09.524Z,15.76
2023-07-16T04:43:09.501Z,15.80
2023-07-16T04:44:09.508Z,15.75
2023-07-16T04:45:09.488Z,15.70
2023-07-16T04:46:09.485Z,15.72
2023-07-16T04:47:09.454Z,15.72
2023-07-16T04:48:09.469Z,15.73
2023-07-16T04:49:09.447Z,15.72
2023-07-16T04:50:09.417Z,15.64
2023-07-16T04:51:09.419Z,15.57
2023-07-16T04:52:09.397Z,15.59
2023-07-16T04:53:09.418Z,15.72
2023-07-16T04:54:09.372Z,15.64
2023-07-16T04:55:09.353Z,15.70
2023-07-16T04:56:09.373Z,15.68
2023-07-16T04:57:09.333Z,15.75
2023-07-16T04:58:09.330Z,15.80
2023-07-16T04:59:09.319Z,15.91
2023-07-16T05:00:09.350Z,15.80
2023-07-16T05:01:09.281Z,15.88
2023-07-16T05:02:09.351Z,15.90
2023-07-16T05:03:09.281Z,15.84
2023-07-16T05:04:09.366Z,15.97
2023-07-16T05:05:09.242Z,15.90
2023-07-16T05:06:09.216Z,15.95
2023-07-16T05:07:09.202Z,15.90
2023-07-16T05:08:09.205Z,15.83
2023-07-16T05:09:09.177Z,15.94
2023-07-16T05:10:09.177Z,15.98
2023-07-16T05:11:09.155Z,15.98
2023-07-16T05:12:09.174Z,15.91
2023-07-16T05:13:09.131Z,15.94
2023-07-16T05:14:09.118Z,15.98
2023-07-16T05:15:09.104Z,15.97
2023-07-16T05:16:09.126Z,15.88
2023-07-16T05:17:09.132Z,15.91
2023-07-16T05:18:09.151Z,15.72
2023-07-16T05:19:09.046Z,15.65
2023-07-16T05:20:09.046Z,15.68
2023-07-16T05:21:09.046Z,15.72
2023-07-16T05:22:09.019Z,15.72
2023-07-16T05:23:09.070Z,15.68
2023-07-16T05:24:08.985Z,15.62
2023-07-16T05:25:08.976Z,15.55
2023-07-16T05:26:08.972Z,15.55
2023-07-16T05:27:08.958Z,15.59
2023-07-16T05:28:08.965Z,15.47
2023-07-16T05:29:08.957Z,15.65
2023-07-16T05:30:08.921Z,15.46
2023-07-16T05:31:08.917Z,15.51
2023-07-16T05:32:08.941Z,15.62
2023-07-16T05:33:08.878Z,15.39
2023-07-16T05:34:08.881Z,15.42
2023-07-16T05:35:08.869Z,15.43
2023-07-16T05:36:08.846Z,15.52
2023-07-16T05:37:08.832Z,15.47
2023-07-16T05:38:08.822Z,15.52
2023-07-16T05:39:08.805Z,15.55
2023-07-16T05:40:08.799Z,15.31
2023-07-16T05:41:08.780Z,15.52
2023-07-16T05:42:08.773Z,15.39
2023-07-16T05:43:08.764Z,15.51
2023-07-16T05:44:08.776Z,15.33
2023-07-16T05:45:08.756Z,15.39
2023-07-16T05:46:08.812Z,15.54
2023-07-16T05:47:08.711Z,15.39
2023-07-16T05:48:08.769Z,15.49
2023-07-16T05:49:08.693Z,15.55
2023-07-16T05:50:08.683Z,15.57
2023-07-16T05:51:08.666Z,15.46
2023-07-16T05:52:08.665Z,15.61
2023-07-16T05:53:08.654Z,15.58
2023-07-16T05:54:08.633Z,15.52
2023-07-16T05:55:08.630Z,15.47
2023-07-16T05:56:08.608Z,15.51
2023-07-16T05:57:08.602Z,15.72
2023-07-16T05:58:08.590Z,15.61
2023-07-16T05:59:08.579Z,15.61
2023-07-16T06:00:08.588Z,15.73
2023-07-16T06:01:08.589Z,15.52
2023-07-16T06:02:08.551Z,15.49
2023-07-16T06:03:08.581Z,15.46
2023-07-16T06:04:08.622Z,15.44
2023-07-16T06:05:08.505Z,15.36
2023-07-16T06:06:08.485Z,15.44
2023-07-16T06:07:08.478Z,15.46
2023-07-16T06:08:08.481Z,15.51
2023-07-16T06:09:08.463Z,15.37
2023-07-16T06:10:08.442Z,15.40
2023-07-16T06:11:08.426Z,15.57
2023-07-16T06:12:08.411Z,15.47
2023-07-16T06:13:08.408Z,15.39
2023-07-16T06:14:08.389Z,15.49
2023-07-16T06:15:08.379Z,15.40
2023-07-16T06:16:08.420Z,15.33
2023-07-16T06:17:08.346Z,15.43
2023-07-16T06:18:08.390Z,15.47
2023-07-16T06:19:08.325Z,15.52
2023-07-16T06:20:08.348Z,15.36
2023-07-16T06:21:08.304Z,15.54
2023-07-16T06:22:08.285Z,15.49
2023-07-16T06:23:08.318Z,15.47
2023-07-16T06:24:08.269Z,15.40
2023-07-16T06:25:08.272Z,15.40
2023-07-16T06:26:08.237Z,15.33
2023-07-16T06:27:08.234Z,15.37
2023-07-16T06:28:08.219Z,15.29
2023-07-16T06:29:08.214Z,15.31
2023-07-16T06:30:08.189Z,15.35
2023-07-16T06:31:08.243Z,15.29
2023-07-16T06:32:08.277Z,15.22
2023-07-16T06:33:08.203Z,15.24
2023-07-16T06:34:08.166Z,15.22
2023-07-16T06:35:08.133Z,15.24
2023-07-16T06:36:08.128Z,15.29
2023-07-16T06:37:08.123Z,15.29
2023-07-16T06:38:08.102Z,15.39
2023-07-16T06:39:08.082Z,15.39
2023-07-16T06:40:08.079Z,15.51
2023-07-16T06:41:08.060Z,15.64
2023-07-16T06:42:08.054Z,15.86
2023-07-16T06:43:08.045Z,15.98
2023-07-16T06:44:08.037Z,16.01
2023-07-16T06:45:08.020Z,16.08
2023-07-16T06:46:08.097Z,16.12
2023-07-16T06:47:08.014Z,16.21
2023-07-16T06:48:08.010Z,16.31
2023-07-16T06:49:07.964Z,16.38
2023-07-16T06:50:07.961Z,16.56
2023-07-16T06:51:07.950Z,17.15
2023-07-16T06:52:07.928Z,17.87
2023-07-16T06:53:07.924Z,18.19
2023-07-16T06:54:07.931Z,17.82
2023-07-16T06:55:07.905Z,17.57
2023-07-16T06:56:07.890Z,17.38
2023-07-16T06:57:07.886Z,18.08
2023-07-16T06:58:07.864Z,19.66
2023-07-16T06:59:07.846Z,20.41
2023-07-16T07:00:07.838Z,20.74
2023-07-16T07:01:07.864Z,21.91
2023-07-16T07:02:07.813Z,22.59
2023-07-16T07:03:07.870Z,22.62
2023-07-16T07:04:07.856Z,22.85
2023-07-16T07:05:07.781Z,22.04
2023-07-16T07:06:07.774Z,21.60
2023-07-16T07:07:07.773Z,21.52
2023-07-16T07:08:07.734Z,21.99
2023-07-16T07:09:07.746Z,21.67
2023-07-16T07:10:07.732Z,20.97
2023-07-16T07:11:07.698Z,21.43
2023-07-16T07:12:07.702Z,22.50
2023-07-16T07:13:07.680Z,23.54
2023-07-16T07:14:09.340Z,24.21
2023-07-16T07:15:07.671Z,25.08
2023-07-16T07:16:07.724Z,25.73
2023-07-16T07:17:07.645Z,26.33
2023-07-16T07:18:07.724Z,26.68
2023-07-16T07:19:07.605Z,27.05
2023-07-16T07:20:07.681Z,26.88
2023-07-16T07:21:07.587Z,26.93
2023-07-16T07:22:07.610Z,27.22
2023-07-16T07:23:07.643Z,27.20
2023-07-16T07:24:07.559Z,27.59
2023-07-16T07:25:07.552Z,27.77
2023-07-16T07:26:07.534Z,28.10
2023-07-16T07:27:07.505Z,28.33
2023-07-16T07:28:07.508Z,28.49
2023-07-16T07:29:07.475Z,28.75
2023-07-16T07:30:07.484Z,28.72
2023-07-16T07:31:07.510Z,28.27
2023-07-16T07:32:07.482Z,28.39
2023-07-16T07:33:07.472Z,28.44
2023-07-16T07:34:07.430Z,28.39
2023-07-16T07:35:07.401Z,28.42
2023-07-16T07:36:07.415Z,28.62
2023-07-16T07:37:07.385Z,28.35
2023-07-16T07:38:07.374Z,28.48
2023-07-16T07:39:07.361Z,28.88
2023-07-16T07:40:07.351Z,28.60
2023-07-16T07:41:07.335Z,28.60
2023-07-16T07:42:07.312Z,28.84
2023-07-16T07:43:07.358Z,29.12
2023-07-16T07:44:07.310Z,29.39
2023-07-16T07:45:07.268Z,29.19
2023-07-16T07:46:07.264Z,29.17
2023-07-16T07:47:07.287Z,29.31
2023-07-16T07:48:07.343Z,29.35
2023-07-16T07:49:07.228Z,29.26
2023-07-16T07:50:07.218Z,28.82
2023-07-16T07:51:07.205Z,28.32
2023-07-16T07:52:07.210Z,27.83
2023-07-16T07:53:07.222Z,27.29
2023-07-16T07:54:07.165Z,25.83
2023-07-16T07:55:07.155Z,24.86
2023-07-16T07:56:07.141Z,24.30
2023-07-16T07:57:07.153Z,23.69
2023-07-16T07:58:07.119Z,23.20
2023-07-16T07:59:07.181Z,22.76
2023-07-16T08:00:07.100Z,22.48
2023-07-16T08:01:07.081Z,22.07
2023-07-16T08:02:07.074Z,21.85
2023-07-16T08:03:07.273Z,21.99
2023-07-16T08:04:07.146Z,21.70
2023-07-16T08:05:07.184Z,21.57
2023-07-16T08:06:07.047Z,21.48
2023-07-16T08:07:07.006Z,21.32
2023-07-16T08:08:07.022Z,21.05
2023-07-16T08:09:06.984Z,20.70
2023-07-16T08:10:06.977Z,20.65
2023-07-16T08:11:06.948Z,20.56
2023-07-16T08:12:06.937Z,21.35
2023-07-16T08:13:06.935Z,22.29
2023-07-16T08:14:06.915Z,23.02
2023-07-16T08:15:06.897Z,22.70
2023-07-16T08:16:06.891Z,22.75
2023-07-16T08:17:06.908Z,22.57
2023-07-16T08:18:06.912Z,22.69
2023-07-16T08:19:06.871Z,22.70
2023-07-16T08:20:06.861Z,22.80
2023-07-16T08:21:06.842Z,22.75
2023-07-16T08:22:06.823Z,22.63
2023-07-16T08:23:07.126Z,22.33
2023-07-16T08:24:06.819Z,22.35
2023-07-16T08:25:06.791Z,22.18
2023-07-16T08:26:06.769Z,22.00
2023-07-16T08:27:06.760Z,21.93
2023-07-16T08:28:06.748Z,21.72
2023-07-16T08:29:06.737Z,21.64
2023-07-16T08:30:06.718Z,21.60
2023-07-16T08:31:06.741Z,21.52
2023-07-16T08:32:06.706Z,21.29
2023-07-16T08:33:06.731Z,21.15
2023-07-16T08:34:06.667Z,20.96
2023-07-16T08:35:06.667Z,20.96
2023-07-16T08:36:06.655Z,20.92
2023-07-16T08:37:06.670Z,20.81
2023-07-16T08:38:06.633Z,20.82
2023-07-16T08:39:06.607Z,20.69
2023-07-16T08:40:06.625Z,20.74
2023-07-16T08:41:06.593Z,20.70
2023-07-16T08:42:06.582Z,20.74
2023-07-16T08:43:06.567Z,20.81
2023-07-16T08:44:06.563Z,20.84
2023-07-16T08:45:06.546Z,20.92
2023-07-16T08:46:06.649Z,20.99
2023-07-16T08:47:06.627Z,20.81
2023-07-16T08:48:06.540Z,20.90
2023-07-16T08:49:06.499Z,20.93
2023-07-16T08:50:06.476Z,20.97
2023-07-16T08:51:06.458Z,20.95
2023-07-16T08:52:06.453Z,20.88
2023-07-16T08:53:06.435Z,20.72
2023-07-16T08:54:06.428Z,20.72
2023-07-16T08:55:06.412Z,20.52
2023-07-16T08:56:06.447Z,20.36
2023-07-16T08:57:06.406Z,20.36
2023-07-16T08:58:06.376Z,20.32
2023-07-16T08:59:06.354Z,20.55
2023-07-16T09:00:06.362Z,20.39
2023-07-16T09:01:06.360Z,20.44
2023-07-16T09:02:06.373Z,20.58
2023-07-16T09:03:06.493Z,20.44
2023-07-16T09:04:06.316Z,20.43
2023-07-16T09:05:06.345Z,20.39
2023-07-16T09:06:06.333Z,20.16
2023-07-16T09:07:06.273Z,20.06
2023-07-16T09:08:06.253Z,19.99
2023-07-16T09:09:06.283Z,19.96
2023-07-16T09:10:06.316Z,19.77
2023-07-16T09:11:06.235Z,19.81
2023-07-16T09:12:06.251Z,19.92
2023-07-16T09:13:06.237Z,19.89
2023-07-16T09:14:06.223Z,19.76
2023-07-16T09:15:06.275Z,19.73
2023-07-16T09:16:06.278Z,19.59
2023-07-16T09:17:06.171Z,19.58
2023-07-16T09:18:06.589Z,19.59
2023-07-16T09:19:06.119Z,19.69
2023-07-16T09:20:06.118Z,19.71
2023-07-16T09:21:06.102Z,19.79
2023-07-16T09:22:06.090Z,19.89
2023-07-16T09:23:06.261Z,19.89
2023-07-16T09:24:06.072Z,20.00
2023-07-16T09:25:06.045Z,20.19
2023-07-16T09:26:06.040Z,20.24
2023-07-16T09:27:06.094Z,20.43
2023-07-16T09:28:06.050Z,20.56
2023-07-16T09:29:06.015Z,20.70
2023-07-16T09:30:06.003Z,20.74
2023-07-16T09:31:05.966Z,20.69
2023-07-16T09:32:06.103Z,20.70
2023-07-16T09:33:06.001Z,20.69
2023-07-16T09:34:05.959Z,20.75
2023-07-16T09:35:05.921Z,20.81
2023-07-16T09:36:05.918Z,20.97
2023-07-16T09:37:05.912Z,20.93
2023-07-16T09:38:05.893Z,20.90
2023-07-16T09:39:05.891Z,20.99
2023-07-16T09:40:05.864Z,21.03
2023-07-16T09:41:05.852Z,21.03
2023-07-16T09:42:05.850Z,21.09
2023-07-16T09:43:05.836Z,21.18
2023-07-16T09:44:05.848Z,21.12
2023-07-16T09:45:05.792Z,21.11
2023-07-16T09:46:05.826Z,21.11
2023-07-16T09:47:05.767Z,21.00
2023-07-16T09:48:05.781Z,20.95
2023-07-16T09:49:05.751Z,20.77
2023-07-16T09:50:05.774Z,20.66
2023-07-16T09:51:05.727Z,20.67
2023-07-16T09:52:05.716Z,20.77
2023-07-16T09:53:05.728Z,20.72
2023-07-16T09:54:05.723Z,20.70
2023-07-16T09:55:05.674Z,20.75
2023-07-16T09:56:05.670Z,20.81
2023-07-16T09:57:05.662Z,20.78
2023-07-16T09:58:05.638Z,20.78
2023-07-16T09:59:05.637Z,20.67
2023-07-16T10:00:05.659Z,20.58
2023-07-16T10:01:05.686Z,20.60
2023-07-16T10:02:05.633Z,20.56
2023-07-16T10:03:05.617Z,20.48
2023-07-16T10:04:05.613Z,20.55
2023-07-16T10:05:05.571Z,20.52
2023-07-16T10:06:05.540Z,20.60
2023-07-16T10:07:05.550Z,20.58
2023-07-16T10:08:05.542Z,20.59
2023-07-16T10:09:05.516Z,20.59
2023-07-16T10:10:05.868Z,20.65
2023-07-16T10:11:05.481Z,20.66
2023-07-16T10:12:05.460Z,20.62
2023-07-16T10:13:05.456Z,20.63
2023-07-16T10:14:05.434Z,20.66
2023-07-16T10:15:05.438Z,20.65
2023-07-16T10:16:05.480Z,20.60
2023-07-16T10:17:05.417Z,20.62
2023-07-16T10:18:05.464Z,20.55
2023-07-16T10:19:05.389Z,20.63
2023-07-16T10:20:05.369Z,20.65
2023-07-16T10:21:05.354Z,20.74
2023-07-16T10:22:05.348Z,20.84
2023-07-16T10:23:05.343Z,20.87
2023-07-16T10:24:05.330Z,20.90
2023-07-16T10:25:05.314Z,20.88
2023-07-16T10:26:05.336Z,20.88
2023-07-16T10:27:05.287Z,20.87
2023-07-16T10:28:05.269Z,20.84
2023-07-16T10:29:05.252Z,20.82
2023-07-16T10:30:05.241Z,20.88
2023-07-16T10:31:05.287Z,21.00
2023-07-16T10:32:05.242Z,21.05
2023-07-16T10:33:05.228Z,21.11
2023-07-16T10:34:05.198Z,21.24
2023-07-16T10:35:05.190Z,21.30
2023-07-16T10:36:05.171Z,21.36
2023-07-16T10:37:05.164Z,21.33
2023-07-16T10:38:05.149Z,21.43
2023-07-16T10:39:05.127Z,21.46
2023-07-16T10:40:05.245Z,21.55
2023-07-16T10:41:05.106Z,21.62
2023-07-16T10:42:05.092Z,21.67
2023-07-16T10:43:05.085Z,21.60
2023-07-16T10:44:05.096Z,21.52
2023-07-16T10:45:05.074Z,21.51
2023-07-16T10:46:05.111Z,21.35
2023-07-16T10:47:05.049Z,21.39
2023-07-16T10:48:05.092Z,21.36
2023-07-16T10:49:05.039Z,21.25
2023-07-16T10:50:05.003Z,21.32
2023-07-16T10:51:04.983Z,21.40
2023-07-16T10:52:04.977Z,21.37
2023-07-16T10:53:04.969Z,21.43
2023-07-16T10:54:04.972Z,21.37
2023-07-16T10:55:04.941Z,21.43
2023-07-16T10:56:04.933Z,21.42
2023-07-16T10:57:04.914Z,21.48
2023-07-16T10:58:04.904Z,21.58
2023-07-16T10:59:04.897Z,21.72
2023-07-16T11:00:04.904Z,21.69
2023-07-16T11:01:04.887Z,21.67
2023-07-16T11:02:04.960Z,21.69
2023-07-16T11:03:04.897Z,21.64
2023-07-16T11:04:04.865Z,21.60
2023-07-16T11:05:04.827Z,21.52
2023-07-16T11:06:04.808Z,21.57
2023-07-16T11:07:04.797Z,21.54
2023-07-16T11:08:04.786Z,21.66
2023-07-16T11:09:04.759Z,21.60
2023-07-16T11:10:04.751Z,21.67
2023-07-16T11:11:04.738Z,21.75
2023-07-16T11:12:04.741Z,21.66
2023-07-16T11:13:04.715Z,21.72
2023-07-16T11:14:04.708Z,21.75
2023-07-16T11:15:04.690Z,21.77
2023-07-16T11:16:04.704Z,21.85
2023-07-16T11:17:04.664Z,21.83
2023-07-16T11:18:04.683Z,21.77
2023-07-16T11:19:04.644Z,21.75
2023-07-16T11:20:04.666Z,21.70
2023-07-16T11:21:04.620Z,21.66
2023-07-16T11:22:04.610Z,21.69
2023-07-16T11:23:04.689Z,21.72
2023-07-16T11:24:04.597Z,21.64
2023-07-16T11:25:04.576Z,21.66
2023-07-16T11:26:04.572Z,21.55
2023-07-16T11:27:04.564Z,21.62
2023-07-16T11:28:04.525Z,21.72
2023-07-16T11:29:04.514Z,21.70
2023-07-16T11:30:04.516Z,21.77
2023-07-16T11:31:04.522Z,21.76
2023-07-16T11:32:04.493Z,21.72
2023-07-16T11:33:04.557Z,21.67
2023-07-16T11:34:04.456Z,21.67
2023-07-16T11:35:04.446Z,21.75
2023-07-16T11:36:04.474Z,21.77
2023-07-16T11:37:04.428Z,21.82
2023-07-16T11:38:04.420Z,21.83
2023-07-16T11:39:04.393Z,21.83
2023-07-16T11:40:04.379Z,21.79
2023-07-16T11:41:04.368Z,21.69
2023-07-16T11:42:04.371Z,21.72
2023-07-16T11:43:04.349Z,21.69
2023-07-16T11:44:04.352Z,21.60
2023-07-16T11:45:04.510Z,21.57
2023-07-16T11:46:04.325Z,21.58
2023-07-16T11:47:04.330Z,21.61
2023-07-16T11:48:04.350Z,21.64
2023-07-16T11:49:04.270Z,21.69
2023-07-16T11:50:04.275Z,21.75
2023-07-16T11:51:04.266Z,21.70
2023-07-16T11:52:04.257Z,21.72
2023-07-16T11:53:04.228Z,21.77
2023-07-16T11:54:04.211Z,21.72
2023-07-16T11:55:04.224Z,21.80
2023-07-16T11:56:04.191Z,21.80
2023-07-16T11:57:04.184Z,21.83
2023-07-16T11:58:04.156Z,21.83
2023-07-16T11:59:04.153Z,21.88
2023-07-16T12:00:04.136Z,21.85
2023-07-16T12:01:04.222Z,21.88
2023-07-16T12:02:04.142Z,21.79
2023-07-16T12:03:04.169Z,21.73
2023-07-16T12:04:04.152Z,21.76
2023-07-16T12:05:04.091Z,21.73
2023-07-16T12:06:04.068Z,21.69
2023-07-16T12:07:04.071Z,21.66
2023-07-16T12:08:04.071Z,21.79
2023-07-16T12:09:04.033Z,21.79
2023-07-16T12:10:04.011Z,21.79
2023-07-16T12:11:04.001Z,21.79
2023-07-16T12:12:03.996Z,21.85
2023-07-16T12:13:03.972Z,21.79
2023-07-16T12:14:03.972Z,21.83
2023-07-16T12:15:03.958Z,21.82
2023-07-16T12:16:03.960Z,21.89
2023-07-16T12:17:03.980Z,21.95
2023-07-16T12:18:03.993Z,22.04
2023-07-16T12:19:03.916Z,22.00
2023-07-16T12:20:03.885Z,22.08
2023-07-16T12:21:03.902Z,22.07
2023-07-16T12:22:03.861Z,22.06
2023-07-16T12:23:04.097Z,22.04
2023-07-16T12:24:03.875Z,22.04
2023-07-16T12:25:03.844Z,22.07
2023-07-16T12:26:03.824Z,22.10
2023-07-16T12:27:03.826Z,22.08
2023-07-16T12:28:03.854Z,22.00
2023-07-16T12:29:03.774Z,22.11
2023-07-16T12:30:03.772Z,22.15
2023-07-16T12:31:03.828Z,22.22
2023-07-16T12:32:03.754Z,22.18
2023-07-16T12:33:03.773Z,22.14
2023-07-16T12:34:03.749Z,22.14
2023-07-16T12:35:03.708Z,22.26
2023-07-16T12:36:03.700Z,22.38
2023-07-16T12:37:03.693Z,22.41
2023-07-16T12:38:03.705Z,22.51
2023-07-16T12:39:03.674Z,22.63
2023-07-16T12:40:03.674Z,22.63
2023-07-16T12:41:03.633Z,22.76
2023-07-16T12:42:03.627Z,22.83
2023-07-16T12:43:03.612Z,22.91
2023-07-16T12:44:03.603Z,22.96
2023-07-16T12:45:03.621Z,23.02
2023-07-16T12:46:03.580Z,23.17
2023-07-16T12:47:03.643Z,23.08
2023-07-16T12:48:03.582Z,22.99
2023-07-16T12:49:03.540Z,23.06
2023-07-16T12:50:03.516Z,23.06
2023-07-16T12:51:03.505Z,23.08
2023-07-16T12:52:03.491Z,23.00